Time;durP1;ratioP1;P1;durP2;ratioP2;P2;SDS_P1;SDS_P2;PMS_P1;PMS_P2;Temp;Humidity;BMP_temperature;BMP_pressure;BME280_temperature;BME280_humidity;BME280_pressure;Samples;Min_cycle;Max_cycle;Signal;HPM_P1;HPM_P2
2022/08/08 00:00:56;;;;;;;7.00;3.33;;;20.30;58.20;;;;;;5017196;28;20030;-69
2022/08/08 00:03:37;;;;;;;5.97;3.25;;;20.30;58.30;;;;;;5015021;28;20118;-69
2022/08/08 00:06:43;;;;;;;6.30;3.22;;;20.30;58.40;;;;;;5032164;28;20090;-69
2022/08/08 00:09:59;;;;;;;6.60;3.45;;;20.30;58.50;;;;;;5013881;28;20048;-69
2022/08/08 00:12:32;;;;;;;7.53;3.05;;;20.30;58.60;;;;;;5000811;28;20159;-69
2022/08/08 00:15:20;;;;;;;8.30;3.15;;;20.20;58.60;;;;;;5007782;28;20049;-69
2022/08/08 00:18:15;;;;;;;6.28;3.35;;;20.20;58.70;;;;;;5000012;28;20038;-69
2022/08/08 00:20:48;;;;;;;7.85;3.38;;;20.20;58.80;;;;;;4977076;28;20108;-69
2022/08/08 00:23:43;;;;;;;6.97;3.33;;;20.20;58.90;;;;;;4984869;28;20140;-69
2022/08/08 00:26:16;;;;;;;6.50;3.47;;;20.10;59.00;;;;;;5007986;28;20049;-70
2022/08/08 00:28:47;;;;;;;7.47;3.35;;;20.10;59.10;;;;;;4985796;28;20459;-69
2022/08/08 00:31:21;;;;;;;7.40;2.97;;;20.10;59.30;;;;;;5007205;28;20088;-69
2022/08/08 00:35:09;;;;;;;6.45;3.42;;;20.00;59.30;;;;;;4986974;28;20133;-69
2022/08/08 00:36:50;;;;;;;8.20;3.58;;;20.00;59.50;;;;;;5005662;28;20030;-69
2022/08/08 00:39:20;;;;;;;7.50;3.00;;;20.00;59.70;;;;;;4995597;28;20101;-69
2022/08/08 00:42:26;;;;;;;8.23;3.33;;;20.00;59.70;;;;;;5012360;28;20104;-69
2022/08/08 00:45:08;;;;;;;7.97;3.08;;;19.90;59.80;;;;;;5013722;28;20350;-69
2022/08/08 00:48:08;;;;;;;6.72;3.08;;;19.90;59.90;;;;;;5026878;28;20041;-69
2022/08/08 00:51:16;;;;;;;6.00;2.92;;;19.90;60.00;;;;;;5009800;28;20089;-69
2022/08/08 00:54:09;;;;;;;8.10;3.50;;;19.80;60.10;;;;;;5014108;28;20087;-69
2022/08/08 00:56:47;;;;;;;8.90;2.97;;;19.80;60.30;;;;;;5023507;28;20025;-69
2022/08/08 00:59:37;;;;;;;8.07;3.15;;;19.80;60.40;;;;;;5020687;28;20428;-69
2022/08/08 01:02:36;;;;;;;7.97;3.25;;;19.70;60.50;;;;;;5027011;28;20366;-69
2022/08/08 01:05:31;;;;;;;6.88;3.28;;;19.70;60.60;;;;;;4991940;28;20030;-69
2022/08/08 01:08:19;;;;;;;7.95;3.72;;;19.70;60.80;;;;;;5013966;28;20175;-69
2022/08/08 01:11:10;;;;;;;9.38;3.70;;;19.60;61.50;;;;;;5028017;28;20032;-69
2022/08/08 01:13:50;;;;;;;6.57;3.10;;;19.60;61.00;;;;;;5018330;28;20040;-69
2022/08/08 01:16:44;;;;;;;8.73;3.50;;;19.60;60.90;;;;;;5031751;28;20043;-69
2022/08/08 01:19:48;;;;;;;8.70;3.50;;;19.60;61.10;;;;;;5001926;28;20030;-68
2022/08/08 01:22:26;;;;;;;6.47;3.53;;;19.60;61.20;;;;;;5007639;28;20116;-69
2022/08/08 01:25:30;;;;;;;8.90;3.45;;;19.60;61.30;;;;;;5011270;28;20022;-69
2022/08/08 01:28:07;;;;;;;8.70;3.50;;;19.60;61.40;;;;;;4998467;28;20189;-69
2022/08/08 01:30:58;;;;;;;8.35;3.53;;;19.50;61.50;;;;;;5010684;28;20037;-69
2022/08/08 01:33:38;;;;;;;8.15;3.78;;;19.50;61.50;;;;;;5007794;28;20033;-69
2022/08/08 01:36:25;;;;;;;6.10;3.42;;;19.50;61.60;;;;;;5008470;28;20463;-69
2022/08/08 01:39:18;;;;;;;7.75;3.55;;;19.50;61.70;;;;;;5023842;28;20034;-69
2022/08/08 01:42:02;;;;;;;8.15;3.92;;;19.50;61.80;;;;;;4991898;28;20060;-69
2022/08/08 01:44:53;;;;;;;9.50;4.13;;;19.50;61.90;;;;;;5016252;28;20440;-69
2022/08/08 01:47:34;;;;;;;7.97;3.95;;;19.50;62.10;;;;;;5000949;28;20044;-69
2022/08/08 01:50:19;;;;;;;7.57;3.90;;;19.40;62.10;;;;;;5016911;28;20481;-69
2022/08/08 01:53:03;;;;;;;8.20;3.60;;;19.50;62.20;;;;;;5010638;28;20041;-69
2022/08/08 01:55:57;;;;;;;7.15;3.83;;;19.40;62.20;;;;;;5011054;28;20054;-69
2022/08/08 01:58:36;;;;;;;7.78;3.75;;;19.40;62.30;;;;;;5027118;28;20079;-69
2022/08/08 02:01:34;;;;;;;6.80;3.55;;;19.40;62.40;;;;;;5014199;28;20026;-69
2022/08/08 02:04:33;;;;;;;6.75;3.85;;;19.40;62.40;;;;;;5009868;28;20109;-69
2022/08/08 02:07:45;;;;;;;7.53;3.78;;;19.40;62.50;;;;;;4995787;28;20358;-69
2022/08/08 02:10:41;;;;;;;6.95;3.67;;;19.30;62.50;;;;;;5024570;28;20036;-69
2022/08/08 02:13:13;;;;;;;6.53;3.40;;;19.40;62.60;;;;;;5009716;28;20046;-69
2022/08/08 02:16:04;;;;;;;9.68;3.95;;;19.30;62.60;;;;;;5014473;28;20125;-69
2022/08/08 02:18:42;;;;;;;6.70;3.50;;;19.30;62.70;;;;;;5027151;28;20029;-69
2022/08/08 02:24:25;;;;;;;7.95;3.78;;;19.20;62.90;;;;;;5029053;28;20049;-69
2022/08/08 02:27:03;;;;;;;7.65;3.55;;;19.20;63.10;;;;;;5017224;28;20029;-69
2022/08/08 02:29:37;;;;;;;7.10;3.65;;;19.20;63.20;;;;;;5007132;28;20080;-69
2022/08/08 02:32:42;;;;;;;8.45;3.55;;;19.10;63.30;;;;;;5017131;28;20025;-69
2022/08/08 02:35:29;;;;;;;6.95;3.75;;;19.10;63.30;;;;;;5010296;28;20038;-69
2022/08/08 02:38:32;;;;;;;7.30;3.75;;;19.10;63.50;;;;;;5030761;28;20332;-69
2022/08/08 02:41:34;;;;;;;7.82;3.60;;;19.00;63.50;;;;;;5016464;28;20026;-69
2022/08/08 02:44:16;;;;;;;9.02;4.47;;;19.00;63.70;;;;;;5000796;28;20387;-69
2022/08/08 02:47:12;;;;;;;6.65;3.72;;;18.90;63.80;;;;;;5029645;28;20034;-69
2022/08/08 02:49:59;;;;;;;7.40;3.90;;;18.90;63.90;;;;;;5006871;28;20416;-69
2022/08/08 02:53:03;;;;;;;7.15;3.42;;;18.90;64.00;;;;;;5015881;28;20061;-69
2022/08/08 02:56:07;;;;;;;7.00;3.75;;;18.90;64.10;;;;;;5016370;28;20108;-69
2022/08/08 02:59:13;;;;;;;7.03;3.40;;;18.90;64.20;;;;;;5014878;28;20406;-69
2022/08/08 03:02:10;;;;;;;6.55;3.45;;;18.80;64.20;;;;;;5012617;28;20104;-69
2022/08/08 03:05:10;;;;;;;7.85;3.80;;;18.80;64.30;;;;;;5006519;28;20029;-69
2022/08/08 03:08:11;;;;;;;8.07;3.40;;;18.80;64.30;;;;;;5006383;28;20113;-69
2022/08/08 03:11:03;;;;;;;7.97;3.60;;;18.70;64.30;;;;;;5017478;28;20018;-69
2022/08/08 03:13:45;;;;;;;8.05;3.38;;;18.70;64.30;;;;;;5005797;28;20050;-69
2022/08/08 03:16:31;;;;;;;8.45;3.50;;;18.80;64.50;;;;;;5025443;28;20140;-69
2022/08/08 03:19:10;;;;;;;6.53;3.30;;;18.80;64.50;;;;;;5033972;28;20458;-69
2022/08/08 03:21:36;;;;;;;8.07;3.08;;;18.80;64.50;;;;;;5019975;28;20045;-69
2022/08/08 03:24:02;;;;;;;7.22;3.47;;;18.80;64.50;;;;;;5029607;28;20029;-69
2022/08/08 03:26:30;;;;;;;8.02;3.38;;;18.80;64.50;;;;;;5020686;28;20030;-69
2022/08/08 03:29:06;;;;;;;7.13;3.92;;;18.80;64.60;;;;;;5023778;28;20032;-69
2022/08/08 03:34:16;;;;;;;8.93;3.42;;;18.80;64.70;;;;;;5023648;28;20036;-69
2022/08/08 03:36:43;;;;;;;7.47;3.60;;;18.80;64.70;;;;;;5015466;28;20022;-69
2022/08/08 03:39:15;;;;;;;6.93;3.20;;;18.70;64.70;;;;;;5021354;28;20080;-69
2022/08/08 03:41:41;;;;;;;8.50;3.58;;;18.70;64.70;;;;;;5015339;28;20034;-69
2022/08/08 03:44:08;;;;;;;8.48;3.72;;;18.70;64.70;;;;;;5027340;28;20022;-69
2022/08/08 03:46:45;;;;;;;6.88;3.75;;;18.70;64.80;;;;;;5004592;28;20034;-69
2022/08/08 03:49:38;;;;;;;7.90;3.60;;;18.70;64.90;;;;;;5020641;28;20040;-69
2022/08/08 03:52:04;;;;;;;7.10;3.42;;;18.70;64.90;;;;;;5010228;28;20045;-69
2022/08/08 03:54:30;;;;;;;8.40;3.58;;;18.70;64.90;;;;;;5019678;28;20045;-69
2022/08/08 03:56:56;;;;;;;8.52;3.95;;;18.70;65.00;;;;;;5012958;28;20121;-69
2022/08/08 03:59:30;;;;;;;7.13;3.58;;;18.70;65.70;;;;;;5030440;28;20468;-69
2022/08/08 04:01:57;;;;;;;10.80;3.17;;;18.70;65.10;;;;;;4993380;28;20041;-69
2022/08/08 04:04:23;;;;;;;9.52;3.72;;;18.70;65.00;;;;;;4993214;28;20034;-69
2022/08/08 04:06:57;;;;;;;6.18;2.97;;;18.70;64.90;;;;;;5006576;28;20030;-68
2022/08/08 04:09:28;;;;;;;8.25;2.97;;;18.70;64.90;;;;;;4990795;28;20026;-69
2022/08/08 04:11:53;;;;;;;5.70;2.78;;;18.70;64.90;;;;;;5011598;28;20053;-69
2022/08/08 04:14:19;;;;;;;5.80;2.90;;;18.70;64.80;;;;;;5013654;28;20022;-69
2022/08/08 04:16:45;;;;;;;7.07;3.40;;;18.70;64.80;;;;;;5011798;28;20030;-69
2022/08/08 04:19:13;;;;;;;6.60;3.25;;;18.70;64.80;;;;;;5010914;28;20475;-69
2022/08/08 04:21:38;;;;;;;7.63;3.10;;;18.70;64.80;;;;;;5009914;28;20032;-69
2022/08/08 04:24:05;;;;;;;7.43;3.17;;;18.70;64.80;;;;;;5009027;28;20021;-69
2022/08/08 04:26:31;;;;;;;7.55;3.17;;;18.70;64.90;;;;;;5010407;28;20117;-69
2022/08/08 04:28:57;;;;;;;6.43;3.22;;;18.70;64.80;;;;;;5013482;28;20136;-69
2022/08/08 04:31:23;;;;;;;6.72;3.00;;;18.70;64.80;;;;;;5013336;28;20447;-69
2022/08/08 04:33:48;;;;;;;6.15;3.05;;;18.70;64.80;;;;;;5006914;28;20034;-69
2022/08/08 04:36:14;;;;;;;5.45;2.75;;;18.70;64.80;;;;;;4995555;28;20125;-69
2022/08/08 04:38:40;;;;;;;6.47;3.05;;;18.70;64.80;;;;;;5011918;28;20108;-69
2022/08/08 04:41:05;;;;;;;8.95;3.65;;;18.70;64.80;;;;;;5010879;28;20172;-69
2022/08/08 04:43:31;;;;;;;6.47;3.20;;;18.70;64.80;;;;;;5003876;28;20096;-68
2022/08/08 04:45:57;;;;;;;7.45;3.38;;;18.70;64.90;;;;;;5012440;28;20470;-69
2022/08/08 04:48:23;;;;;;;7.10;2.92;;;18.70;64.90;;;;;;5010709;28;20025;-69
2022/08/08 04:50:49;;;;;;;8.35;2.85;;;18.70;64.90;;;;;;5010155;28;20028;-68
2022/08/08 04:53:19;;;;;;;7.15;2.95;;;18.70;64.90;;;;;;5009589;28;20021;-68
2022/08/08 04:55:46;;;;;;;6.88;3.20;;;18.80;65.00;;;;;;4997821;28;20048;-68
2022/08/08 04:58:13;;;;;;;7.15;3.08;;;18.80;65.00;;;;;;5011689;28;20022;-68
2022/08/08 05:00:42;;;;;;;7.53;2.97;;;18.70;64.80;;;;;;5024410;28;20030;-67
2022/08/08 05:03:09;;;;;;;6.47;2.92;;;18.70;64.80;;;;;;5019348;28;20030;-67
2022/08/08 05:05:35;;;;;;;6.63;2.78;;;18.80;64.90;;;;;;5022185;28;20025;-67
2022/08/08 05:08:01;;;;;;;5.97;2.95;;;18.80;64.90;;;;;;5008950;28;20030;-68
2022/08/08 05:10:28;;;;;;;5.60;2.63;;;18.80;64.90;;;;;;5026265;28;20021;-67
2022/08/08 05:12:56;;;;;;;7.60;3.03;;;18.80;64.80;;;;;;5000635;28;20487;-68
2022/08/08 05:15:21;;;;;;;6.38;3.45;;;18.80;64.80;;;;;;5004295;28;20025;-67
2022/08/08 05:17:47;;;;;;;7.28;2.90;;;18.90;64.80;;;;;;5014419;28;20125;-67
2022/08/08 05:20:13;;;;;;;7.40;2.83;;;18.90;64.80;;;;;;5025132;28;20029;-67
2022/08/08 05:22:39;;;;;;;5.50;2.85;;;18.90;64.80;;;;;;5001071;28;20120;-67
2022/08/08 05:25:05;;;;;;;7.68;3.33;;;18.90;64.80;;;;;;5012510;28;20109;-67
2022/08/08 05:27:31;;;;;;;7.45;3.17;;;18.90;64.80;;;;;;5020493;28;20030;-68
2022/08/08 05:29:57;;;;;;;6.07;2.92;;;18.90;64.80;;;;;;5032979;28;20025;-69
2022/08/08 05:32:26;;;;;;;7.65;2.75;;;18.90;64.90;;;;;;5006087;28;20018;-69
2022/08/08 05:34:52;;;;;;;8.20;2.88;;;19.00;64.90;;;;;;5027092;28;20430;-69
2022/08/08 05:37:24;;;;;;;5.80;2.67;;;19.10;64.90;;;;;;5000144;28;20022;-70
2022/08/08 05:39:52;;;;;;;7.05;3.00;;;19.10;64.70;;;;;;5022185;28;20381;-69
2022/08/08 05:42:27;;;;;;;5.63;2.72;;;19.20;64.60;;;;;;5004172;28;20037;-68
2022/08/08 05:44:53;;;;;;;5.97;2.58;;;19.20;64.40;;;;;;5017728;28;20041;-68
2022/08/08 05:47:21;;;;;;;6.32;2.50;;;19.30;64.30;;;;;;5020616;28;20202;-68
2022/08/08 05:49:47;;;;;;;6.97;2.50;;;19.40;64.20;;;;;;5023071;28;20094;-68
2022/08/08 05:52:14;;;;;;;4.68;2.22;;;19.50;64.00;;;;;;5016809;28;20470;-66
2022/08/08 05:54:39;;;;;;;4.47;2.33;;;19.60;63.90;;;;;;5015229;28;20072;-65
2022/08/08 05:57:14;;;;;;;5.68;2.72;;;19.70;63.70;;;;;;5018380;28;20018;-65
2022/08/08 05:59:42;;;;;;;6.20;2.50;;;19.80;63.50;;;;;;5017514;28;20087;-65
2022/08/08 06:05:04;;;;;;;8.85;2.35;;;20.00;63.20;;;;;;5021370;28;20030;-65
2022/08/08 06:07:31;;;;;;;8.57;2.47;;;20.10;63.00;;;;;;4998315;28;20028;-65
2022/08/08 06:10:01;;;;;;;6.25;2.15;;;20.20;62.80;;;;;;5028225;28;20021;-65
2022/08/08 06:12:30;;;;;;;4.85;2.28;;;20.20;62.60;;;;;;4996954;28;20045;-66
2022/08/08 06:15:01;;;;;;;5.22;1.90;;;20.40;62.60;;;;;;5004381;28;20143;-65
2022/08/08 06:17:27;;;;;;;6.15;2.10;;;20.50;62.20;;;;;;5025895;28;20028;-65
2022/08/08 06:19:55;;;;;;;8.48;2.53;;;20.60;62.00;;;;;;5018276;28;20132;-65
2022/08/08 06:22:21;;;;;;;5.00;2.00;;;20.80;61.60;;;;;;5001162;28;20110;-65
2022/08/08 06:24:49;;;;;;;5.00;2.15;;;21.00;61.20;;;;;;5020628;28;20200;-65
2022/08/08 06:27:18;;;;;;;5.70;1.90;;;21.20;60.70;;;;;;5007933;28;20513;-67
2022/08/08 06:30:10;;;;;;;6.68;2.45;;;21.40;60.40;;;;;;5016568;28;20443;-66
2022/08/08 06:32:59;;;;;;;7.20;2.00;;;21.50;59.80;;;;;;5019736;28;20053;-67
2022/08/08 06:35:30;;;;;;;5.55;2.28;;;21.70;59.40;;;;;;5004032;28;20434;-67
2022/08/08 06:38:04;;;;;;;4.13;1.70;;;21.80;59.20;;;;;;5016962;28;20147;-65
2022/08/08 06:40:33;;;;;;;9.73;1.85;;;22.00;58.90;;;;;;5010186;28;20116;-66
2022/08/08 06:43:04;;;;;;;4.28;1.60;;;22.10;58.50;;;;;;5021861;28;20025;-65
2022/08/08 06:45:37;;;;;;;6.57;1.80;;;22.30;58.00;;;;;;5029883;28;20018;-66
2022/08/08 06:48:04;;;;;;;5.20;1.95;;;22.50;57.80;;;;;;5036388;28;20394;-65
2022/08/08 06:50:33;;;;;;;4.13;1.90;;;22.60;57.40;;;;;;5012148;28;20056;-65
2022/08/08 06:53:02;;;;;;;3.53;1.40;;;22.90;57.10;;;;;;5017911;28;20034;-65
2022/08/08 06:55:29;;;;;;;6.75;2.05;;;23.00;56.60;;;;;;5018875;28;20022;-65
2022/08/08 06:57:55;;;;;;;4.05;1.70;;;23.10;56.10;;;;;;5019041;28;20415;-65
2022/08/08 07:00:21;;;;;;;5.05;1.80;;;23.20;56.00;;;;;;5006042;28;20133;-66
2022/08/08 07:02:59;;;;;;;7.00;1.77;;;23.30;55.60;;;;;;5025842;28;20105;-66
2022/08/08 07:05:25;;;;;;;6.70;1.77;;;23.40;55.40;;;;;;5023275;28;20034;-66
2022/08/08 07:08:17;;;;;;;4.95;1.70;;;23.50;55.10;;;;;;5008661;28;20026;-65
2022/08/08 07:10:49;;;;;;;4.68;1.83;;;23.70;54.80;;;;;;5023576;28;20025;-65
2022/08/08 07:13:17;;;;;;;5.32;1.90;;;23.90;54.60;;;;;;5036053;28;20029;-65
2022/08/08 07:16:03;;;;;;;5.43;2.00;;;24.00;54.30;;;;;;5027646;28;20041;-65
2022/08/08 07:18:53;;;;;;;4.63;2.08;;;24.10;53.90;;;;;;5017465;28;20030;-65
2022/08/08 07:21:27;;;;;;;6.32;2.53;;;24.20;53.50;;;;;;5021593;28;20047;-67
2022/08/08 07:24:21;;;;;;;5.38;2.25;;;24.30;53.40;;;;;;5007814;28;20026;-65
2022/08/08 07:26:53;;;;;;;8.45;2.28;;;24.50;53.10;;;;;;5012380;28;20061;-65
2022/08/08 07:29:22;;;;;;;5.32;2.00;;;24.70;52.70;;;;;;5019388;28;20041;-65
2022/08/08 07:31:49;;;;;;;5.38;1.90;;;24.80;52.40;;;;;;5025918;28;20034;-65
2022/08/08 07:34:17;;;;;;;3.88;1.50;;;25.00;52.00;;;;;;5013568;28;20034;-65
2022/08/08 07:36:44;;;;;;;6.75;2.10;;;25.00;51.60;;;;;;4993207;28;20109;-66
2022/08/08 07:39:11;;;;;;;5.18;2.15;;;25.10;51.20;;;;;;5022203;28;20080;-66
2022/08/08 07:41:41;;;;;;;3.85;1.70;;;25.20;50.90;;;;;;5029022;28;20026;-67
2022/08/08 07:44:08;;;;;;;3.58;1.52;;;25.30;50.80;;;;;;5019078;28;20045;-65
2022/08/08 07:46:34;;;;;;;3.10;1.40;;;25.40;50.50;;;;;;5028344;28;20060;-66
2022/08/08 07:49:12;;;;;;;3.00;1.38;;;25.50;50.20;;;;;;5020695;28;20370;-67
2022/08/08 07:51:40;;;;;;;4.53;1.70;;;25.60;49.70;;;;;;5017303;28;20025;-66
2022/08/08 07:54:22;;;;;;;3.42;1.30;;;25.70;49.60;;;;;;5011235;28;20099;-66
2022/08/08 07:56:59;;;;;;;4.32;1.90;;;25.80;49.30;;;;;;4998481;28;20096;-66
2022/08/08 07:59:29;;;;;;;4.32;1.60;;;25.90;49.10;;;;;;5007320;28;20026;-66
2022/08/08 08:01:57;;;;;;;4.53;1.40;;;26.00;49.50;;;;;;5022794;28;20030;-66
2022/08/08 08:04:31;;;;;;;3.25;1.33;;;26.00;48.70;;;;;;5034476;28;20031;-66
2022/08/08 08:07:01;;;;;;;3.97;1.60;;;26.10;48.60;;;;;;5034390;28;20029;-66
2022/08/08 08:09:34;;;;;;;3.10;1.20;;;26.10;48.40;;;;;;5034222;28;20022;-66
2022/08/08 08:12:00;;;;;;;5.15;1.48;;;26.20;48.20;;;;;;5019864;28;20053;-66
2022/08/08 08:14:52;;;;;;;4.15;1.50;;;26.20;48.00;;;;;;5034580;28;20029;-69
2022/08/08 08:17:19;;;;;;;5.38;1.65;;;26.20;47.70;;;;;;5011455;28;20030;-67
2022/08/08 08:19:48;;;;;;;4.65;1.50;;;26.30;47.80;;;;;;5007424;28;20056;-66
2022/08/08 08:22:17;;;;;;;4.10;1.57;;;26.30;47.50;;;;;;5001527;28;20113;-65
2022/08/08 08:24:46;;;;;;;2.10;1.02;;;26.40;47.30;;;;;;4988918;28;20014;-71
2022/08/08 08:27:11;;;;;;;3.47;1.30;;;26.50;47.10;;;;;;5009085;28;20390;-68
2022/08/08 08:29:41;;;;;;;5.88;1.90;;;26.60;47.00;;;;;;5007054;28;20064;-67
2022/08/08 08:32:07;;;;;;;3.47;1.17;;;26.60;46.70;;;;;;5017723;28;20030;-67
2022/08/08 08:34:35;;;;;;;3.15;1.10;;;26.70;46.50;;;;;;5021417;28;20025;-69
2022/08/08 08:37:04;;;;;;;3.00;1.17;;;26.70;46.50;;;;;;5008904;28;20034;-68
2022/08/08 08:39:29;;;;;;;2.42;1.02;;;26.80;46.20;;;;;;5009981;28;20098;-70
2022/08/08 08:41:57;;;;;;;3.22;1.15;;;26.80;45.80;;;;;;5025649;28;20109;-71
2022/08/08 08:44:25;;;;;;;3.92;1.30;;;26.90;45.80;;;;;;5045091;28;20022;-68
2022/08/08 08:46:52;;;;;;;2.30;0.93;;;27.00;45.50;;;;;;5013080;28;20026;-66
2022/08/08 08:49:19;;;;;;;3.42;1.10;;;27.00;45.30;;;;;;5011570;28;20033;-67
2022/08/08 08:51:47;;;;;;;1.70;0.98;;;27.10;45.20;;;;;;4998320;28;20029;-67
2022/08/08 08:54:15;;;;;;;2.75;1.13;;;27.20;44.80;;;;;;5000970;28;20030;-67
2022/08/08 08:56:40;;;;;;;2.22;0.85;;;27.30;44.60;;;;;;5005883;28;20039;-67
2022/08/08 08:59:14;;;;;;;4.07;1.13;;;27.40;44.60;;;;;;5003877;28;20069;-66
2022/08/08 09:01:44;;;;;;;5.27;1.10;;;27.50;44.40;;;;;;5001573;28;20030;-67
2022/08/08 09:04:25;;;;;;;2.63;1.10;;;27.60;44.10;;;;;;5004367;28;20316;-67
2022/08/08 09:06:52;;;;;;;3.13;1.23;;;27.70;44.00;;;;;;5020530;28;20037;-65
2022/08/08 09:09:26;;;;;;;3.00;0.88;;;27.80;43.50;;;;;;4983731;28;20083;-66
2022/08/08 09:11:57;;;;;;;2.95;1.10;;;28.00;42.90;;;;;;5019345;28;20470;-66
2022/08/08 09:14:24;;;;;;;2.53;0.93;;;28.00;42.50;;;;;;5019649;28;20018;-66
2022/08/08 09:16:52;;;;;;;2.28;0.80;;;28.10;42.20;;;;;;5032993;28;20033;-65
2022/08/08 09:19:18;;;;;;;2.38;0.88;;;28.00;41.90;;;;;;5033240;28;20120;-65
2022/08/08 09:21:50;;;;;;;2.40;1.10;;;27.90;41.90;;;;;;5017312;28;20169;-66
2022/08/08 09:24:16;;;;;;;2.15;1.00;;;27.60;42.00;;;;;;5009830;28;20061;-66
2022/08/08 09:27:01;;;;;;;2.22;1.00;;;27.70;42.10;;;;;;5009734;28;20344;-65
2022/08/08 09:29:31;;;;;;;3.03;1.00;;;27.50;42.20;;;;;;4991867;28;20018;-66
2022/08/08 09:32:07;;;;;;;3.70;1.00;;;27.30;42.40;;;;;;5002783;28;20498;-66
2022/08/08 09:34:49;;;;;;;3.53;1.08;;;27.20;42.60;;;;;;5010490;28;20413;-66
2022/08/08 09:37:18;;;;;;;2.38;0.77;;;27.00;42.80;;;;;;5021071;28;20485;-66
2022/08/08 09:39:46;;;;;;;5.50;1.10;;;27.00;43.10;;;;;;5025949;28;20030;-66
2022/08/08 09:42:15;;;;;;;2.63;0.98;;;27.00;42.90;;;;;;5025559;28;20462;-66
2022/08/08 09:45:16;;;;;;;1.42;0.73;;;26.90;42.80;;;;;;5020613;28;20331;-66
2022/08/08 09:47:43;;;;;;;3.08;0.98;;;27.00;42.50;;;;;;5009636;28;20041;-66
2022/08/08 09:50:11;;;;;;;2.20;0.90;;;26.90;42.60;;;;;;4997464;28;20042;-66
2022/08/08 09:52:40;;;;;;;2.75;1.10;;;26.90;42.50;;;;;;5022199;28;20026;-66
2022/08/08 09:55:07;;;;;;;2.67;0.90;;;26.80;42.50;;;;;;5033913;28;20080;-65
2022/08/08 09:57:38;;;;;;;3.65;1.20;;;26.60;42.70;;;;;;5028862;28;20041;-66
2022/08/08 10:00:07;;;;;;;2.33;1.00;;;26.40;43.00;;;;;;5019026;28;20033;-66
2022/08/08 10:02:43;;;;;;;3.95;1.40;;;26.20;43.00;;;;;;5014658;28;20117;-65
2022/08/08 10:05:17;;;;;;;3.70;1.27;;;26.00;43.60;;;;;;5027754;28;20056;-65
2022/08/08 10:07:51;;;;;;;3.70;1.08;;;25.80;43.90;;;;;;5034252;28;20029;-65
2022/08/08 10:10:36;;;;;;;2.60;1.00;;;25.70;44.20;;;;;;5033224;28;20033;-66
2022/08/08 10:13:25;;;;;;;2.58;1.20;;;25.70;44.20;;;;;;5019197;28;20482;-65
2022/08/08 10:15:52;;;;;;;2.70;1.10;;;25.60;44.20;;;;;;5032772;28;20426;-66
2022/08/08 10:18:27;;;;;;;2.65;1.05;;;25.60;44.40;;;;;;5031660;28;20036;-66
2022/08/08 10:21:00;;;;;;;4.10;1.50;;;25.60;44.50;;;;;;5034133;28;20037;-66
2022/08/08 10:23:45;;;;;;;2.35;1.10;;;25.70;45.10;;;;;;5016516;28;20036;-66
2022/08/08 10:26:16;;;;;;;3.75;1.15;;;25.70;44.20;;;;;;5029005;28;20034;-66
2022/08/08 10:29:02;;;;;;;3.77;1.20;;;25.80;44.00;;;;;;5025087;28;20112;-66
2022/08/08 10:34:16;;;;;;;4.70;1.02;;;25.90;43.90;;;;;;5035294;28;20486;-66
2022/08/08 10:36:43;;;;;;;3.78;1.30;;;25.90;43.70;;;;;;5037520;28;20017;-66
2022/08/08 10:39:14;;;;;;;2.47;1.20;;;25.70;43.80;;;;;;5019535;28;20041;-65
2022/08/08 10:41:43;;;;;;;1.67;0.70;;;25.70;44.10;;;;;;5029330;28;20121;-66
2022/08/08 10:44:11;;;;;;;1.73;0.95;;;25.70;44.30;;;;;;5019885;28;20022;-65
2022/08/08 10:46:37;;;;;;;2.15;0.88;;;25.60;44.30;;;;;;5032766;28;20335;-66
2022/08/08 10:49:02;;;;;;;2.47;1.02;;;25.60;44.50;;;;;;5036916;28;20037;-66
2022/08/08 10:51:34;;;;;;;1.85;1.00;;;25.50;44.60;;;;;;5036915;28;20037;-66
2022/08/08 10:54:00;;;;;;;3.28;1.20;;;25.60;44.60;;;;;;5037113;28;20370;-66
2022/08/08 10:56:31;;;;;;;2.50;1.00;;;25.50;44.40;;;;;;5037234;28;20025;-66
2022/08/08 10:58:57;;;;;;;;;;;25.50;44.70;;;;;;5026246;28;20037;-66
2022/08/08 11:01:30;;;;;;;4.50;0.98;;;25.50;44.70;;;;;;5022329;28;19913;-66
2022/08/08 11:03:58;;;;;;;2.53;1.05;;;25.60;44.60;;;;;;5037111;28;20450;-66
2022/08/08 11:06:29;;;;;;;3.05;1.20;;;25.60;44.50;;;;;;5036145;28;20030;-66
2022/08/08 11:09:03;;;;;;;2.70;0.90;;;25.70;44.60;;;;;;5037236;28;20021;-66
2022/08/08 11:11:37;;;;;;;2.80;0.82;;;25.70;44.50;;;;;;5031949;28;20489;-66
2022/08/08 11:14:04;;;;;;;3.38;1.10;;;25.60;44.40;;;;;;5025948;28;20037;-66
2022/08/08 11:16:32;;;;;;;2.70;1.23;;;25.60;44.50;;;;;;5036796;28;20045;-66
2022/08/08 11:19:03;;;;;;;3.88;1.10;;;25.60;44.50;;;;;;5036997;28;20442;-66
2022/08/08 11:21:33;;;;;;;1.90;0.83;;;25.60;44.30;;;;;;5035583;28;20059;-66
2022/08/08 11:24:04;;;;;;;2.35;1.00;;;25.70;44.30;;;;;;5035548;28;20033;-66
2022/08/08 11:26:33;;;;;;;3.80;1.23;;;26.00;44.10;;;;;;5031222;28;20426;-66
2022/08/08 11:29:04;;;;;;;3.33;1.17;;;26.10;44.60;;;;;;5029880;28;20030;-66
2022/08/08 11:31:39;;;;;;;4.18;1.42;;;26.20;44.00;;;;;;5035019;28;20466;-66
2022/08/08 11:34:05;;;;;;;1.67;0.73;;;26.50;43.80;;;;;;5035529;28;20038;-66
2022/08/08 11:36:33;;;;;;;2.78;1.00;;;26.70;43.60;;;;;;5036337;28;20529;-66
2022/08/08 11:38:59;;;;;;;2.53;1.10;;;26.90;43.30;;;;;;5036052;28;20358;-66
2022/08/08 11:41:26;;;;;;;2.47;0.98;;;27.30;42.60;;;;;;5034589;28;20455;-66
2022/08/08 11:43:56;;;;;;;2.50;0.93;;;27.60;42.10;;;;;;5028234;28;20118;-66
2022/08/08 11:46:26;;;;;;;1.30;0.75;;;28.00;41.60;;;;;;5036051;28;20087;-66
2022/08/08 11:48:53;;;;;;;1.58;0.73;;;28.10;41.20;;;;;;5035360;28;20514;-66
2022/08/08 11:51:22;;;;;;;4.65;1.08;;;28.00;41.10;;;;;;5011987;28;20041;-66
2022/08/08 11:53:49;;;;;;;2.80;1.20;;;27.70;41.10;;;;;;5022702;28;20037;-66
2022/08/08 11:56:20;;;;;;;2.45;0.90;;;27.40;41.70;;;;;;5021210;28;20040;-66
2022/08/08 11:58:46;;;;;;;3.63;1.10;;;27.30;42.00;;;;;;5028943;28;20060;-66
2022/08/08 12:01:12;;;;;;;4.85;1.20;;;27.00;42.30;;;;;;5014111;28;20112;-67
2022/08/08 12:03:46;;;;;;;2.92;0.95;;;26.90;42.60;;;;;;5018453;28;20030;-67
2022/08/08 12:06:13;;;;;;;2.58;0.95;;;26.70;42.60;;;;;;5024595;28;20434;-67
2022/08/08 12:08:40;;;;;;;2.90;1.00;;;26.60;42.70;;;;;;5025942;28;20019;-67
2022/08/08 12:11:24;;;;;;;2.30;1.00;;;26.50;42.80;;;;;;5008698;28;20061;-67
2022/08/08 12:13:49;;;;;;;4.15;1.10;;;26.60;43.00;;;;;;5011450;28;20153;-67
2022/08/08 12:16:18;;;;;;;3.22;1.10;;;26.50;42.90;;;;;;5006831;28;20033;-67
2022/08/08 12:18:55;;;;;;;1.40;0.88;;;26.60;43.10;;;;;;5000742;28;20029;-67
2022/08/08 12:21:26;;;;;;;2.28;1.00;;;26.60;42.90;;;;;;5014484;28;20026;-70
2022/08/08 12:24:03;;;;;;;2.97;1.25;;;26.80;42.70;;;;;;5007808;28;20095;-71
2022/08/08 12:26:44;;;;;;;3.22;1.17;;;27.00;42.20;;;;;;5006138;28;20022;-71
2022/08/08 12:29:32;;;;;;;2.47;0.95;;;27.20;41.80;;;;;;5034609;28;20063;-67
2022/08/08 12:32:05;;;;;;;3.08;1.08;;;27.20;41.50;;;;;;5021241;28;20426;-67
2022/08/08 12:34:57;;;;;;;2.65;0.88;;;27.20;41.70;;;;;;5028652;28;20040;-67
2022/08/08 12:37:30;;;;;;;1.77;0.88;;;27.10;41.70;;;;;;5007214;28;20042;-68
2022/08/08 12:40:00;;;;;;;2.35;0.80;;;27.00;42.00;;;;;;5013673;28;20088;-67
2022/08/08 12:42:26;;;;;;;2.20;0.90;;;27.00;42.20;;;;;;5015832;28;20074;-67
2022/08/08 12:45:04;;;;;;;3.58;1.00;;;26.90;42.00;;;;;;5012363;28;20064;-67
2022/08/08 12:47:29;;;;;;;2.92;1.02;;;26.90;41.50;;;;;;5005251;28;20455;-67
2022/08/08 12:49:55;;;;;;;1.25;0.85;;;26.90;41.50;;;;;;5014514;28;20084;-67
2022/08/08 12:52:23;;;;;;;2.58;1.10;;;26.80;41.30;;;;;;4998397;28;20154;-67
2022/08/08 12:55:01;;;;;;;2.60;1.00;;;26.90;41.40;;;;;;5013646;28;20072;-67
2022/08/08 12:57:29;;;;;;;2.90;0.80;;;26.90;41.40;;;;;;5008735;28;20080;-66
2022/08/08 12:59:55;;;;;;;3.97;1.08;;;26.90;41.50;;;;;;4988665;28;20336;-67
2022/08/08 13:02:23;;;;;;;3.75;1.00;;;26.90;41.30;;;;;;4994262;28;20100;-68
2022/08/08 13:04:50;;;;;;;2.53;1.13;;;26.80;41.30;;;;;;4989302;28;20039;-67
2022/08/08 13:07:16;;;;;;;1.65;0.80;;;26.70;41.50;;;;;;5012688;28;20032;-68
2022/08/08 13:09:56;;;;;;;2.53;1.00;;;26.60;41.50;;;;;;5006518;28;20026;-67
2022/08/08 13:12:29;;;;;;;2.17;0.95;;;26.50;41.60;;;;;;5011738;28;20050;-67
2022/08/08 13:14:56;;;;;;;2.05;0.90;;;26.50;41.70;;;;;;5012696;28;20048;-68
2022/08/08 13:17:26;;;;;;;2.25;0.90;;;26.50;41.60;;;;;;5011507;28;20069;-67
2022/08/08 13:19:55;;;;;;;5.05;1.38;;;26.50;41.60;;;;;;5013766;28;20061;-67
2022/08/08 13:22:21;;;;;;;1.77;0.82;;;26.60;41.70;;;;;;5013780;28;20431;-67
2022/08/08 13:24:47;;;;;;;3.63;1.10;;;26.70;41.40;;;;;;5013095;28;20033;-67
2022/08/08 13:27:25;;;;;;;2.20;0.90;;;26.70;41.40;;;;;;5010616;28;20038;-67
2022/08/08 13:29:56;;;;;;;2.28;0.88;;;26.60;41.50;;;;;;5009274;28;20049;-67
2022/08/08 13:32:23;;;;;;;2.38;0.90;;;26.50;41.70;;;;;;5016617;28;20091;-67
2022/08/08 13:34:55;;;;;;;3.10;1.10;;;26.50;42.00;;;;;;5008067;28;20467;-67
2022/08/08 13:37:22;;;;;;;4.22;0.98;;;26.40;42.30;;;;;;5022467;28;20040;-67